Frenzy — SA9057 — position and weather

sailwx.info

Track history (hours):
 
Tides and Currents Weather Stations Pressure Air Temp Water Temp Dewpoint Dewpoint Depression Visibility Wind Speed Wind Dir Waves Ship Positions

Frenzy

Last reported at 2015-Aug-21 16:32 UTC. Time now 2015-Aug-28 05:09 UTC.
Position N 50°35' W 001°51'.

Length 11 m.

Type: Pleasure craft. MMSI: 265610080.

Date/timePositionNaut miles runAvg speedWind from/ knotsBaromVisibWave heightAir tempDewpointWater temp
2015-Aug-21 16:32N 50°35' W 001°51'7 6.5
2015-Aug-21 15:32N 50°38' W 001°41'18 0.7
2015-Aug-20 13:16N 50°46' W 001°16'3 4.9
2015-Aug-20 12:33N 50°46' W 001°10'3 2.8
2015-Aug-20 11:33N 50°48' W 001°07'1 0.0
2015-Aug-18 15:05N 50°49' W 001°08'0 0.0
2015-Aug-18 14:32N 50°49' W 001°08'1 1.3
2015-Aug-18 13:33N 50°48' W 001°07'7 6.6
2015-Aug-18 12:33N 50°43' W 000°60'49 2.0
2015-Aug-17 12:33N 50°44' E 000°18'6 5.6
2015-Aug-17 11:33N 50°46' E 000°26'5 4.9
2015-Aug-17 10:33N 50°48' E 000°33'34 6.7
2015-Aug-17 05:31N 51°06' E 001°19'4 0.2
2015-Aug-16 08:33N 51°04' E 001°24'7 6.4
2015-Aug-16 07:27N 51°01' E 001°34'  
2015-Aug-12 07:08N 51°03' E 002°08'  
Track history (hours):
 
Tides and Currents Weather Stations Pressure Air Temp Water Temp Dewpoint Dewpoint Depression Visibility Wind Speed Wind Dir Waves Ship Positions

Frenzy

Last reported at 2015-Aug-21 16:32 UTC. Time now 2015-Aug-28 05:09 UTC.
Position N 50°35' W 001°51'.

Length 11 m.

Type: Pleasure craft. MMSI: 265610080.

Date/timePositionNaut miles runAvg speedWind from/ knotsBaromVisibWave heightAir tempDewpointWater temp
2015-Aug-21 16:32N 50°35' W 001°51'7 6.5
2015-Aug-21 15:32N 50°38' W 001°41'18 0.7
2015-Aug-20 13:16N 50°46' W 001°16'3 4.9
2015-Aug-20 12:33N 50°46' W 001°10'3 2.8
2015-Aug-20 11:33N 50°48' W 001°07'1 0.0
2015-Aug-18 15:05N 50°49' W 001°08'0 0.0
2015-Aug-18 14:32N 50°49' W 001°08'1 1.3
2015-Aug-18 13:33N 50°48' W 001°07'7 6.6
2015-Aug-18 12:33N 50°43' W 000°60'49 2.0
2015-Aug-17 12:33N 50°44' E 000°18'6 5.6
2015-Aug-17 11:33N 50°46' E 000°26'5 4.9
2015-Aug-17 10:33N 50°48' E 000°33'34 6.7
2015-Aug-17 05:31N 51°06' E 001°19'4 0.2
2015-Aug-16 08:33N 51°04' E 001°24'7 6.4
2015-Aug-16 07:27N 51°01' E 001°34'  
2015-Aug-12 07:08N 51°03' E 002°08'  

Dump ship's entire track history